Map

Track Data

SID SEASON NUMBER BASIN SUBBASIN NAME ISO_TIME NATURE LAT LON WMO_WIND WMO_PRES WMO_AGENCY TRACK_TYPE DIST2LAND LANDFALL IFLAG USA_AGENCY USA_ATCF_ID USA_LAT USA_LON USA_RECORD USA_STATUS USA_WIND USA_PRES USA_SSHS USA_R34_NE USA_R34_SE USA_R34_SW USA_R34_NW USA_R50_NE USA_R50_SE USA_R50_SW USA_R50_NW USA_R64_NE USA_R64_SE USA_R64_SW USA_R64_NW USA_POCI USA_ROCI USA_RMW USA_EYE TOKYO_LAT TOKYO_LON TOKYO_GRADE TOKYO_WIND TOKYO_PRES TOKYO_R50_DIR TOKYO_R50_LONG TOKYO_R50_SHORT TOKYO_R30_DIR TOKYO_R30_LONG TOKYO_R30_SHORT TOKYO_LAND CMA_LAT CMA_LON CMA_CAT CMA_WIND CMA_PRES HKO_LAT HKO_LON HKO_CAT HKO_WIND HKO_PRES NEWDELHI_LAT NEWDELHI_LON NEWDELHI_GRADE NEWDELHI_WIND NEWDELHI_PRES NEWDELHI_CI NEWDELHI_DP NEWDELHI_POCI REUNION_LAT REUNION_LON REUNION_TYPE REUNION_WIND REUNION_PRES REUNION_TNUM REUNION_CI REUNION_RMW REUNION_R34_NE REUNION_R34_SE REUNION_R34_SW REUNION_R34_NW REUNION_R50_NE REUNION_R50_SE REUNION_R50_SW REUNION_R50_NW REUNION_R64_NE REUNION_R64_SE REUNION_R64_SW REUNION_R64_NW BOM_LAT BOM_LON BOM_TYPE BOM_WIND BOM_PRES BOM_TNUM BOM_CI BOM_RMW BOM_R34_NE BOM_R34_SE BOM_R34_SW BOM_R34_NW BOM_R50_NE BOM_R50_SE BOM_R50_SW BOM_R50_NW BOM_R64_NE BOM_R64_SE BOM_R64_SW BOM_R64_NW BOM_ROCI BOM_POCI BOM_EYE BOM_POS_METHOD BOM_PRES_METHOD NADI_LAT NADI_LON NADI_CAT NADI_WIND NADI_PRES WELLINGTON_LAT WELLINGTON_LON WELLINGTON_WIND WELLINGTON_PRES DS824_LAT DS824_LON DS824_STAGE DS824_WIND DS824_PRES TD9636_LAT TD9636_LON TD9636_STAGE TD9636_WIND TD9636_PRES TD9635_LAT TD9635_LON TD9635_WIND TD9635_PRES TD9635_ROCI NEUMANN_LAT NEUMANN_LON NEUMANN_CLASS NEUMANN_WIND NEUMANN_PRES MLC_LAT MLC_LON MLC_CLASS MLC_WIND MLC_PRES USA_GUST BOM_GUST BOM_GUST_PER REUNION_GUST REUNION_GUST_PER USA_SEAHGT USA_SEARAD_NE USA_SEARAD_SE USA_SEARAD_SW USA_SEARAD_NW STORM_SPEED STORM_DIR
1928052S17073 1928 12 SI MM NOT_NAMED 1928-02-21 06:00:00 NR -17.1000 72.7000 reunion main 1609 1598 _____O________ -1 -17.1000 72.7000 99 9.90000 2 240
1928052S17073 1928 12 SI MM NOT_NAMED 1928-02-21 09:00:00 NR -17.1401 72.6286 main 1598 1595 _____P________ -1 -17.1401 72.6286 99 2 238
1928052S17073 1928 12 SI MM NOT_NAMED 1928-02-21 12:00:00 NR -17.1894 72.5486 main 1585 1582 _____P________ -1 -17.1894 72.5486 99 2 235
1928052S17073 1928 12 SI MM NOT_NAMED 1928-02-21 15:00:00 NR -17.2574 72.4514 main 1582 1562 _____P________ -1 -17.2574 72.4514 99 3 232
1928052S17073 1928 12 SI MM NOT_NAMED 1928-02-21 18:00:00 NR -17.3532 72.3282 main 1559 1546 _____P________ -1 -17.3532 72.3282 99 4 229
1928052S17073 1928 12 SI MM NOT_NAMED 1928-02-21 21:00:00 NR -17.4861 72.1705 main 1546 1520 _____P________ -1 -17.4861 72.1705 99 5 228
1928052S17073 1928 12 SI MM NOT_NAMED 1928-02-22 00:00:00 NR -17.6655 71.9692 main 1520 1484 _____P________ -1 -17.6655 71.9692 99 6 226
1928052S17073 1928 12 SI MM NOT_NAMED 1928-02-22 03:00:00 NR -17.9004 71.7155 main 1484 1446 _____P________ -1 -17.9004 71.7155 99 8 225
1928052S17073 1928 12 SI MM NOT_NAMED 1928-02-22 06:00:00 NR -18.2000 71.4000 reunion main 1446 1398 _____O________ -1 -18.2000 71.4000 99 9.90000 9 225
1928052S17073 1928 12 SI MM NOT_NAMED 1928-02-22 09:00:00 NR -18.5703 71.0182 main 1396 1347 _____P________ -1 -18.5703 71.0182 99 11 224
1928052S17073 1928 12 SI MM NOT_NAMED 1928-02-22 12:00:00 NR -19.0056 70.5844 main 1347 1288 _____P________ -1 -19.0056 70.5844 99 13 223
1928052S17073 1928 12 SI MM NOT_NAMED 1928-02-22 15:00:00 NR -19.4968 70.1183 main 1288 1242 _____P________ -1 -19.4968 70.1183 99 14 221
1928052S17073 1928 12 SI MM NOT_NAMED 1928-02-22 18:00:00 NR -20.0356 69.6393 main 1231 1187 _____P________ -1 -20.0356 69.6393 99 14 219
1928052S17073 1928 12 SI MM NOT_NAMED 1928-02-22 21:00:00 NR -20.6133 69.1675 main 1187 1137 _____P________ -1 -20.6133 69.1675 99 15 216
1928052S17073 1928 12 SI MM NOT_NAMED 1928-02-23 00:00:00 NR -21.2219 68.7232 main 1137 1102 _____P________ -1 -21.2219 68.7232 99 15 212
1928052S17073 1928 12 SI MM NOT_NAMED 1928-02-23 03:00:00 NR -21.8533 68.3270 main 1103 1081 _____P________ -1 -21.8533 68.3270 99 15 208
1928052S17073 1928 12 SI MM NOT_NAMED 1928-02-23 06:00:00 NR -22.5000 68.0000 reunion main 1083 1076 _____O________ -1 -22.5000 68.0000 99 9.90000 14 200
1928052S17073 1928 12 SI MM NOT_NAMED 1928-02-23 09:00:00 NR -23.1979 67.7849 main 1081 1078 _____P________ -1 -23.1979 67.7849 99 15 193
1928052S17073 1928 12 SI MM NOT_NAMED 1928-02-23 12:00:00 NR -23.9292 67.6321 main 1086 1086 _____P________ -1 -23.9292 67.6321 99 15 189
1928052S17073 1928 12 SI MM NOT_NAMED 1928-02-23 15:00:00 NR -24.6741 67.5359 main 1109 1109 _____P________ -1 -24.6741 67.5359 99 15 185
1928052S17073 1928 12 SI MM NOT_NAMED 1928-02-23 18:00:00 NR -25.4127 67.4906 main 1142 1142 _____P________ -1 -25.4127 67.4906 99 15 181
1928052S17073 1928 12 SI MM NOT_NAMED 1928-02-23 21:00:00 NR -26.1248 67.4904 main 1179 1179 _____P________ -1 -26.1248 67.4904 99 14 178
1928052S17073 1928 12 SI MM NOT_NAMED 1928-02-24 00:00:00 NR -26.7902 67.5294 main 1220 1220 _____P________ -1 -26.7902 67.5294 99 13 176
1928052S17073 1928 12 SI MM NOT_NAMED 1928-02-24 03:00:00 NR -27.3886 67.6014 main 1266 1266 _____P________ -1 -27.3886 67.6014 99 11 172
1928052S17073 1928 12 SI MM NOT_NAMED 1928-02-24 06:00:00 NR -27.9000 67.7000 reunion main 1307 1307 _____O________ -1 -27.9000 67.7000 99 9.90000 9 168
1928052S17073 1928 12 SI MM NOT_NAMED 1928-02-24 09:00:00 NR -28.3097 67.8192 main 1342 1342 _____P________ -1 -28.3097 67.8192 99 8 163
1928052S17073 1928 12 SI MM NOT_NAMED 1928-02-24 12:00:00 NR -28.6256 67.9559 main 1378 1378 _____P________ -1 -28.6256 67.9559 99 6 155
1928052S17073 1928 12 SI MM NOT_NAMED 1928-02-24 15:00:00 NR -28.8611 68.1074 main 1406 1406 _____P________ -1 -28.8611 68.1074 99 5 146
1928052S17073 1928 12 SI MM NOT_NAMED 1928-02-24 18:00:00 NR -29.0295 68.2713 main 1429 1429 _____P________ -1 -29.0295 68.2713 99 4 134
1928052S17073 1928 12 SI MM NOT_NAMED 1928-02-24 21:00:00 NR -29.1443 68.4450 main 1443 1443 _____P________ -1 -29.1443 68.4450 99 4 121
1928052S17073 1928 12 SI MM NOT_NAMED 1928-02-25 00:00:00 NR -29.2187 68.6259 main 1465 1465 _____P________ -1 -29.2187 68.6259 99 3 111
1928052S17073 1928 12 SI MM NOT_NAMED 1928-02-25 03:00:00 NR -29.2662 68.8117 main 1487 1487 _____P________ -1 -29.2662 68.8117 99 3 104
1928052S17073 1928 12 SI MM NOT_NAMED 1928-02-25 06:00:00 NR -29.3000 69.0000 reunion main 1502 _____O________ -1 -29.3000 69.0000 99 9.90000 3 102

About IBTrACS Database

This database is a web-friendly format of International Best Track Archive for Climate Stewardship (IBTrACS), a global best track data archive curated by NOAA dating back to 1842.

Updated: 2021-12-03